createdAt,value
2022-08-25T00:00:21.148Z,100700.59
2022-08-25T00:02:55.660Z,100696.56
2022-08-25T00:05:32.289Z,100696.19
2022-08-25T00:08:06.168Z,100695.66
2022-08-25T00:10:37.200Z,100703.28
2022-08-25T00:13:06.780Z,100702.91
2022-08-25T00:15:36.068Z,100695.34
2022-08-25T00:18:05.363Z,100710.84
2022-08-25T00:20:43.312Z,100702.31
2022-08-25T00:23:19.488Z,100710.31
2022-08-25T00:25:47.897Z,100712.16
2022-08-25T00:28:16.787Z,100702.53
2022-08-25T00:30:45.984Z,100711.53
2022-08-25T00:33:14.680Z,100708.09
2022-08-25T00:35:44.029Z,100710.03
2022-08-25T00:38:13.124Z,100701.28
2022-08-25T00:40:44.474Z,100701.50
2022-08-25T00:43:13.958Z,100701.72
2022-08-25T00:45:42.311Z,100702.91
2022-08-25T00:48:10.934Z,100696.06
2022-08-25T00:50:39.379Z,100698.09
2022-08-25T00:53:09.797Z,100697.47
2022-08-25T00:55:40.973Z,100704.09
2022-08-25T00:58:18.249Z,100707.00
2022-08-25T01:00:50.893Z,100701.97
2022-08-25T01:03:21.428Z,100702.19
2022-08-25T01:05:54.884Z,100700.72
2022-08-25T01:08:28.198Z,100700.94
2022-08-25T01:11:00.448Z,100707.34
2022-08-25T01:13:37.706Z,100703.06
2022-08-25T01:16:06.561Z,100703.06
2022-08-25T01:18:48.497Z,100708.63
2022-08-25T01:21:22.568Z,100708.63
2022-08-25T01:23:52.579Z,100716.63
2022-08-25T01:26:30.158Z,100710.53
2022-08-25T01:29:20.429Z,100716.09
2022-08-25T01:31:50.160Z,100714.59
2022-08-25T01:34:21.363Z,100712.03
2022-08-25T01:36:51.312Z,100717.72
2022-08-25T01:39:20.068Z,100707.25
2022-08-25T01:42:10.153Z,100709.38
2022-08-25T01:44:43.467Z,100712.25
2022-08-25T01:47:13.338Z,100710.78
2022-08-25T01:49:41.966Z,100712.69
2022-08-25T01:52:20.361Z,100721.88
2022-08-25T01:54:50.250Z,100722.09
2022-08-25T01:57:18.773Z,100715.19
2022-08-25T01:59:48.049Z,100716.38
2022-08-25T02:02:18.310Z,100722.88
2022-08-25T02:04:48.687Z,100713.28
2022-08-25T02:07:21.353Z,100717.22
2022-08-25T02:09:49.794Z,100720.94
2022-08-25T02:12:18.252Z,100723.91
2022-08-25T02:14:48.746Z,100716.09
2022-08-25T02:17:17.500Z,100715.38
2022-08-25T02:19:45.844Z,100714.72
2022-08-25T02:22:14.233Z,100706.81
2022-08-25T02:24:44.072Z,100710.44
2022-08-25T02:27:12.496Z,100712.34
2022-08-25T02:29:41.044Z,100703.59
2022-08-25T02:32:10.232Z,100700.94
2022-08-25T02:34:41.104Z,100710.88
2022-08-25T02:37:09.761Z,100715.44
2022-08-25T02:39:38.180Z,100707.63
2022-08-25T02:42:08.375Z,100707.72
2022-08-25T02:44:36.762Z,100708.81
2022-08-25T02:47:06.025Z,100705.19
2022-08-25T02:49:35.235Z,100709.75
2022-08-25T02:52:05.290Z,100705.38
2022-08-25T02:54:33.741Z,100707.28
2022-08-25T02:57:02.556Z,100701.22
2022-08-25T02:59:32.333Z,100694.38
2022-08-25T03:02:00.684Z,100695.41
2022-08-25T03:04:29.485Z,100696.47
2022-08-25T03:06:58.128Z,100701.06
2022-08-25T03:09:27.879Z,100702.13
2022-08-25T03:11:56.221Z,100705.84
2022-08-25T03:14:24.955Z,100702.53
2022-08-25T03:16:54.772Z,100692.91
2022-08-25T03:19:24.264Z,100702.78
2022-08-25T03:21:56.181Z,100703.75
2022-08-25T03:24:25.081Z,100697.84
2022-08-25T03:26:55.878Z,100699.78
2022-08-25T03:29:25.844Z,100698.25
2022-08-25T03:31:58.166Z,100701.13
2022-08-25T03:34:29.016Z,100709.31
2022-08-25T03:36:58.832Z,100706.97
2022-08-25T03:39:28.976Z,100707.03
2022-08-25T03:41:57.429Z,100706.28
2022-08-25T03:44:25.843Z,100708.19
2022-08-25T03:46:55.668Z,100704.78
2022-08-25T03:49:25.677Z,100701.25
2022-08-25T03:51:55.880Z,100704.97
2022-08-25T03:54:27.020Z,100693.53
2022-08-25T03:56:56.080Z,100689.25
2022-08-25T03:59:24.453Z,100684.91
2022-08-25T04:01:55.412Z,100679.69
2022-08-25T04:04:25.876Z,100682.44
2022-08-25T04:06:54.317Z,100676.34
2022-08-25T04:09:22.704Z,100673.88
2022-08-25T04:11:51.985Z,100682.94
2022-08-25T04:14:23.456Z,100688.47
2022-08-25T04:16:52.874Z,100689.59
2022-08-25T04:19:22.234Z,100688.81
2022-08-25T04:21:56.591Z,100683.69
2022-08-25T04:24:25.453Z,100690.94
2022-08-25T04:26:54.401Z,100687.50
2022-08-25T04:29:25.408Z,100684.84
2022-08-25T04:31:55.817Z,100689.41
2022-08-25T04:34:31.117Z,100690.38
2022-08-25T04:37:03.414Z,100692.25
2022-08-25T04:39:32.341Z,100696.66
2022-08-25T04:42:01.488Z,100705.56
2022-08-25T04:44:31.862Z,100705.75
2022-08-25T04:47:01.083Z,100709.38
2022-08-25T04:49:29.812Z,100709.38
2022-08-25T04:51:58.219Z,100701.50
2022-08-25T04:54:28.253Z,100689.13
2022-08-25T04:56:58.628Z,100700.63
2022-08-25T04:59:30.142Z,100702.34
2022-08-25T05:02:02.452Z,100686.38
2022-08-25T05:04:32.753Z,100680.88
2022-08-25T05:07:02.583Z,100687.88
2022-08-25T05:09:33.073Z,100690.47
2022-08-25T05:12:02.934Z,100691.31
2022-08-25T05:14:32.004Z,100694.72
2022-08-25T05:17:01.074Z,100691.13
2022-08-25T05:19:29.676Z,100697.19
2022-08-25T05:21:58.311Z,100685.63
2022-08-25T05:24:27.939Z,100689.97
2022-08-25T05:26:58.046Z,100692.44
2022-08-25T05:29:27.358Z,100687.13
2022-08-25T05:31:55.945Z,100679.91
2022-08-25T05:34:25.314Z,100670.03
2022-08-25T05:36:54.547Z,100670.75
2022-08-25T05:39:22.996Z,100674.94
2022-08-25T05:41:53.021Z,100678.28
2022-08-25T05:44:22.807Z,100688.81
2022-08-25T05:46:51.516Z,100684.25
2022-08-25T05:49:20.333Z,100689.38
2022-08-25T05:51:48.829Z,100685.56
2022-08-25T05:54:17.516Z,100689.75
2022-08-25T05:56:46.488Z,100687.63
2022-08-25T05:59:15.008Z,100686.50
2022-08-25T06:02:02.680Z,100672.84
2022-08-25T06:04:31.245Z,100664.59
2022-08-25T06:06:59.591Z,100666.94
2022-08-25T06:09:28.033Z,100666.53
2022-08-25T06:11:56.805Z,100673.28
2022-08-25T06:14:26.108Z,100670.22
2022-08-25T06:16:56.912Z,100668.88
2022-08-25T06:19:25.305Z,100664.00
2022-08-25T06:21:56.492Z,100674.16
2022-08-25T06:24:26.000Z,100672.00
2022-08-25T06:26:56.063Z,100669.81
2022-08-25T06:29:24.997Z,100667.56
2022-08-25T06:31:55.141Z,100670.53
2022-08-25T06:34:24.140Z,100667.38
2022-08-25T06:36:53.840Z,100662.47
2022-08-25T06:39:24.240Z,100656.47
2022-08-25T06:41:54.099Z,100654.19
2022-08-25T06:44:23.829Z,100655.34
2022-08-25T06:46:52.422Z,100663.03
2022-08-25T06:49:22.719Z,100653.50
2022-08-25T06:51:51.291Z,100660.88
2022-08-25T06:54:19.662Z,100658.41
2022-08-25T06:56:49.673Z,100657.53
2022-08-25T06:59:18.805Z,100653.97
2022-08-25T07:01:49.701Z,100660.91
2022-08-25T07:04:18.762Z,100654.81
2022-08-25T07:06:49.052Z,100654.63
2022-08-25T07:09:17.976Z,100648.84
2022-08-25T07:11:47.063Z,100650.13
2022-08-25T07:14:18.673Z,100655.47
2022-08-25T07:16:50.306Z,100641.75
2022-08-25T07:19:20.939Z,100638.72
2022-08-25T07:21:54.070Z,100635.94
2022-08-25T07:24:23.898Z,100632.03
2022-08-25T07:26:53.281Z,100628.31
2022-08-25T07:29:32.278Z,100631.66
2022-08-25T07:32:02.406Z,100632.44
2022-08-25T07:34:52.163Z,100619.13
2022-08-25T07:37:47.978Z,100625.03
2022-08-25T07:40:17.687Z,100618.41
2022-08-25T07:42:46.774Z,100613.44
2022-08-25T07:45:17.383Z,100619.94
2022-08-25T07:47:51.692Z,100620.91
2022-08-25T07:50:21.708Z,100621.38
2022-08-25T07:52:55.491Z,100624.66
2022-08-25T07:55:25.605Z,100615.25
2022-08-25T07:57:57.062Z,100610.66
2022-08-25T08:00:29.947Z,100615.25
2022-08-25T08:02:59.571Z,100613.16
2022-08-25T08:05:28.413Z,100619.78
2022-08-25T08:07:58.827Z,100620.38
2022-08-25T08:10:47.987Z,100623.94
2022-08-25T08:13:18.627Z,100617.63
2022-08-25T08:15:48.578Z,100624.00
2022-08-25T08:18:18.474Z,100613.09
2022-08-25T08:20:49.068Z,100624.38
2022-08-25T08:23:19.001Z,100619.13
2022-08-25T08:25:48.153Z,100628.41
2022-08-25T08:28:16.804Z,100616.44
2022-08-25T08:30:52.763Z,100612.06
2022-08-25T08:33:24.837Z,100609.22
2022-08-25T08:36:04.965Z,100611.66
2022-08-25T08:38:36.355Z,100611.06
2022-08-25T08:41:54.310Z,100620.78
2022-08-25T08:44:32.810Z,100612.63
2022-08-25T08:47:12.112Z,100620.13
2022-08-25T08:49:51.040Z,100611.97
2022-08-25T08:52:25.500Z,100606.63
2022-08-25T08:55:07.349Z,100604.81
2022-08-25T08:57:44.122Z,100598.75
2022-08-25T09:00:13.889Z,100597.72
2022-08-25T09:02:53.664Z,100591.19
2022-08-25T09:05:28.241Z,100599.59
2022-08-25T09:08:01.921Z,100589.06
2022-08-25T09:10:54.704Z,100589.50
2022-08-25T09:13:43.029Z,100593.28
2022-08-25T09:16:40.784Z,100592.81
2022-08-25T09:19:32.156Z,100584.72
2022-08-25T09:22:35.995Z,100590.06
2022-08-25T09:25:10.338Z,100590.00
2022-08-25T09:27:51.599Z,100583.28
2022-08-25T09:30:25.082Z,100579.47
2022-08-25T09:33:03.962Z,100575.59
2022-08-25T09:35:37.505Z,100576.28
2022-08-25T09:38:11.203Z,100571.03
2022-08-25T09:40:42.917Z,100563.03
2022-08-25T09:43:23.674Z,100547.03
2022-08-25T09:46:01.685Z,100551.97
2022-08-25T09:48:39.791Z,100547.16
2022-08-25T09:51:21.855Z,100556.47
2022-08-25T09:53:55.919Z,100547.66
2022-08-25T09:56:27.521Z,100546.88
2022-08-25T09:59:18.274Z,100543.53
2022-08-25T10:01:51.383Z,100532.44
2022-08-25T10:04:28.105Z,100525.09
2022-08-25T10:06:56.735Z,100522.56
2022-08-25T10:09:33.075Z,100532.59
2022-08-25T10:12:04.961Z,100524.16
2022-08-25T10:14:44.258Z,100514.69
2022-08-25T10:17:24.639Z,100514.31
2022-08-25T10:20:15.246Z,100514.31
2022-08-25T10:22:45.959Z,100509.84
2022-08-25T10:25:21.184Z,100505.41
2022-08-25T10:28:03.665Z,100495.84
2022-08-25T10:30:52.156Z,100496.56
2022-08-25T10:33:33.486Z,100504.19
2022-08-25T10:36:15.057Z,100505.41
2022-08-25T10:38:56.282Z,100495.63
2022-08-25T10:41:44.958Z,100490.91
2022-08-25T10:44:42.438Z,100498.88
2022-08-25T10:47:50.183Z,100492.00
2022-08-25T10:50:30.428Z,100489.50
2022-08-25T10:53:47.317Z,100490.59
2022-08-25T10:56:22.441Z,100479.28
2022-08-25T10:59:28.321Z,100485.13
2022-08-25T11:02:49.272Z,100479.88
2022-08-25T11:05:28.069Z,100473.91
2022-08-25T11:08:08.096Z,100459.91
2022-08-25T11:10:45.624Z,100461.69
2022-08-25T11:13:30.462Z,100461.47
2022-08-25T11:16:23.692Z,100459.03
2022-08-25T11:19:05.391Z,100453.06
2022-08-25T11:21:46.893Z,100447.38
2022-08-25T11:24:53.997Z,100455.31
2022-08-25T11:27:29.321Z,100444.81
2022-08-25T11:30:07.100Z,100449.09
2022-08-25T11:32:36.995Z,100435.47
2022-08-25T11:35:09.816Z,100438.75
2022-08-25T11:37:59.024Z,100439.59
2022-08-25T11:40:51.825Z,100438.59
2022-08-25T11:43:56.721Z,100441.47
2022-08-25T11:46:42.289Z,100444.88
2022-08-25T11:49:48.477Z,100437.31
2022-08-25T11:52:49.106Z,100427.22
2022-08-25T11:55:24.065Z,100432.16
2022-08-25T11:58:14.161Z,100416.97
2022-08-25T12:00:46.024Z,100419.13
2022-08-25T12:03:53.137Z,100418.59
2022-08-25T12:06:27.941Z,100418.63
2022-08-25T12:09:20.181Z,100431.81
2022-08-25T12:11:55.027Z,100415.03
2022-08-25T12:14:47.976Z,100419.25
2022-08-25T12:17:25.343Z,100411.22
2022-08-25T12:20:00.592Z,100414.53
2022-08-25T12:23:00.039Z,100409.84
2022-08-25T12:25:54.780Z,100413.69
2022-08-25T12:28:58.931Z,100400.78
2022-08-25T12:32:04.919Z,100403.25
2022-08-25T12:34:54.212Z,100406.50
2022-08-25T12:37:25.162Z,100406.03
2022-08-25T12:40:01.403Z,100402.06
2022-08-25T12:42:36.293Z,100403.44
2022-08-25T12:45:31.123Z,100395.47
2022-08-25T12:48:58.213Z,100386.88
2022-08-25T12:51:29.909Z,100393.88
2022-08-25T12:54:22.326Z,100389.06
2022-08-25T12:56:57.304Z,100394.69
2022-08-25T12:59:37.876Z,100386.38
2022-08-25T13:02:36.631Z,100387.19
2022-08-25T13:05:29.549Z,100379.25
2022-08-25T13:08:42.178Z,100385.09
2022-08-25T13:11:20.251Z,100373.19
2022-08-25T13:13:57.512Z,100378.28
2022-08-25T13:16:30.342Z,100373.34
2022-08-25T13:19:04.811Z,100362.66
2022-08-25T13:21:39.365Z,100366.78
2022-08-25T13:24:15.660Z,100361.72
2022-08-25T13:26:48.450Z,100350.00
2022-08-25T13:29:22.505Z,100349.72
2022-08-25T13:31:58.713Z,100345.91
2022-08-25T13:34:34.956Z,100342.19
2022-08-25T13:37:22.439Z,100334.06
2022-08-25T13:39:56.582Z,100329.09
2022-08-25T13:42:29.112Z,100334.75
2022-08-25T13:44:57.991Z,100335.53
2022-08-25T13:47:45.169Z,100329.56
2022-08-25T13:50:32.001Z,100331.78
2022-08-25T13:53:04.985Z,100324.38
2022-08-25T13:55:51.399Z,100325.03
2022-08-25T13:58:32.474Z,100324.84
2022-08-25T14:01:23.009Z,100316.16
2022-08-25T14:04:29.501Z,100314.28
2022-08-25T14:07:19.583Z,100311.94
2022-08-25T14:09:52.810Z,100310.56
2022-08-25T14:12:39.499Z,100316.78
2022-08-25T14:15:27.067Z,100310.28
2022-08-25T14:18:05.549Z,100306.81
2022-08-25T14:20:38.905Z,100306.94
2022-08-25T14:23:16.250Z,100297.44
2022-08-25T14:25:47.785Z,100296.44
2022-08-25T14:28:19.466Z,100296.75
2022-08-25T14:30:52.147Z,100290.28
2022-08-25T14:33:23.790Z,100297.31
2022-08-25T14:35:59.023Z,100294.00
2022-08-25T14:38:27.629Z,100293.53
2022-08-25T14:40:59.248Z,100292.25
2022-08-25T14:43:31.786Z,100285.53
2022-08-25T14:46:15.536Z,100280.84
2022-08-25T14:48:47.058Z,100280.22
2022-08-25T14:51:19.452Z,100277.69
2022-08-25T14:53:49.121Z,100272.50
2022-08-25T14:56:17.680Z,100274.63
2022-08-25T14:58:50.856Z,100266.81
2022-08-25T15:01:29.283Z,100263.72
2022-08-25T15:04:04.673Z,100268.59
2022-08-25T15:06:36.193Z,100264.25
2022-08-25T15:09:13.790Z,100251.47
2022-08-25T15:11:45.581Z,100255.41
2022-08-25T15:14:17.411Z,100260.09
2022-08-25T15:16:50.148Z,100254.25
2022-08-25T15:19:23.477Z,100252.22
2022-08-25T15:21:54.371Z,100245.28
2022-08-25T15:24:27.695Z,100240.34
2022-08-25T15:26:58.886Z,100241.34
2022-08-25T15:29:30.325Z,100239.88
2022-08-25T15:32:00.546Z,100244.53
2022-08-25T15:34:29.176Z,100238.66
2022-08-25T15:37:00.928Z,100237.09
2022-08-25T15:39:31.383Z,100234.06
2022-08-25T15:41:59.750Z,100240.94
2022-08-25T15:44:29.681Z,100229.16
2022-08-25T15:46:59.194Z,100226.81
2022-08-25T15:49:31.278Z,100228.09
2022-08-25T15:52:01.616Z,100219.91
2022-08-25T15:54:30.993Z,100229.38
2022-08-25T15:57:00.051Z,100221.53
2022-08-25T15:59:30.148Z,100228.78
2022-08-25T16:01:59.369Z,100228.00
2022-08-25T16:04:29.690Z,100217.81
2022-08-25T16:07:00.891Z,100217.81
2022-08-25T16:09:31.276Z,100215.13
2022-08-25T16:12:04.034Z,100220.19
2022-08-25T16:14:35.339Z,100220.13
2022-08-25T16:17:04.323Z,100211.34
2022-08-25T16:19:33.588Z,100215.28
2022-08-25T16:22:08.814Z,100200.91
2022-08-25T16:24:42.054Z,100203.72
2022-08-25T16:27:12.037Z,100207.72
2022-08-25T16:29:43.752Z,100200.53
2022-08-25T16:32:14.977Z,100198.66
2022-08-25T16:34:44.852Z,100196.28
2022-08-25T16:37:14.720Z,100202.72
2022-08-25T16:39:45.636Z,100203.59
2022-08-25T16:42:15.006Z,100206.59
2022-08-25T16:44:43.338Z,100207.47
2022-08-25T16:47:14.149Z,100201.63
2022-08-25T16:49:43.865Z,100201.31
2022-08-25T16:52:31.532Z,100199.38
2022-08-25T16:55:16.468Z,100207.97
2022-08-25T16:57:48.025Z,100207.13
2022-08-25T17:00:21.921Z,100201.81
2022-08-25T17:02:54.229Z,100202.44
2022-08-25T17:05:22.854Z,100200.59
2022-08-25T17:08:07.276Z,100202.25
2022-08-25T17:10:38.553Z,100201.53
2022-08-25T17:13:07.983Z,100200.88
2022-08-25T17:15:40.933Z,100195.34
2022-08-25T17:18:11.158Z,100206.97
2022-08-25T17:20:40.325Z,100199.09
2022-08-25T17:23:12.390Z,100201.47
2022-08-25T17:25:43.550Z,100200.22
2022-08-25T17:28:13.037Z,100196.88
2022-08-25T17:30:43.476Z,100198.81
2022-08-25T17:33:12.447Z,100192.91
2022-08-25T17:35:41.891Z,100198.75
2022-08-25T17:38:12.871Z,100199.59
2022-08-25T17:40:41.475Z,100203.78
2022-08-25T17:43:10.940Z,100202.41
2022-08-25T17:45:40.368Z,100203.50
2022-08-25T17:48:10.195Z,100211.63
2022-08-25T17:50:39.379Z,100212.09
2022-08-25T17:53:09.342Z,100207.34
2022-08-25T17:55:42.305Z,100212.19
2022-08-25T17:58:16.013Z,100205.06
2022-08-25T18:00:47.074Z,100212.16
2022-08-25T18:03:15.745Z,100208.34
2022-08-25T18:05:47.341Z,100221.25
2022-08-25T18:08:18.790Z,100218.16
2022-08-25T18:10:51.909Z,100217.13
2022-08-25T18:13:23.337Z,100210.19
2022-08-25T18:15:51.757Z,100209.97
2022-08-25T18:18:29.586Z,100208.03
2022-08-25T18:20:58.004Z,100222.84
2022-08-25T18:23:28.760Z,100223.81
2022-08-25T18:26:00.783Z,100217.66
2022-08-25T18:28:29.963Z,100227.38
2022-08-25T18:30:58.867Z,100224.38
2022-08-25T18:33:29.959Z,100223.91
2022-08-25T18:35:59.252Z,100231.16
2022-08-25T18:38:45.628Z,100226.91
2022-08-25T18:41:15.830Z,100230.09
2022-08-25T18:43:44.465Z,100229.19
2022-08-25T18:46:13.064Z,100233.50
2022-08-25T18:48:41.553Z,100228.00
2022-08-25T18:51:10.616Z,100227.75
2022-08-25T18:53:50.099Z,100225.97
2022-08-25T18:56:21.940Z,100237.34
2022-08-25T18:58:50.371Z,100230.59
2022-08-25T19:01:20.649Z,100238.78
2022-08-25T19:03:50.311Z,100246.91
2022-08-25T19:06:19.499Z,100243.72
2022-08-25T19:08:49.692Z,100238.50
2022-08-25T19:11:22.397Z,100237.84
2022-08-25T19:13:52.065Z,100242.56
2022-08-25T19:16:32.861Z,100233.13
2022-08-25T19:19:03.644Z,100233.13
2022-08-25T19:21:32.399Z,100238.53
2022-08-25T19:24:01.375Z,100237.84
2022-08-25T19:26:35.289Z,100238.69
2022-08-25T19:29:04.314Z,100243.53
2022-08-25T19:31:33.468Z,100241.84
2022-08-25T19:34:03.564Z,100240.47
2022-08-25T19:36:32.178Z,100247.69
2022-08-25T19:39:03.729Z,100239.75
2022-08-25T19:41:34.424Z,100248.00
2022-08-25T19:44:03.566Z,100246.91
2022-08-25T19:46:36.114Z,100246.72
2022-08-25T19:49:12.736Z,100257.47
2022-08-25T19:51:45.671Z,100250.72
2022-08-25T19:54:16.422Z,100245.97
2022-08-25T19:56:54.320Z,100256.38
2022-08-25T19:59:34.316Z,100257.72
2022-08-25T20:02:15.367Z,100259.06
2022-08-25T20:04:50.003Z,100270.44
2022-08-25T20:07:21.143Z,100262.84
2022-08-25T20:09:49.777Z,100256.94
2022-08-25T20:12:21.180Z,100262.66
2022-08-25T20:14:51.419Z,100257.59
2022-08-25T20:17:24.839Z,100260.72
2022-08-25T20:20:00.257Z,100253.97
2022-08-25T20:22:32.273Z,100258.81
2022-08-25T20:25:13.033Z,100257.44
2022-08-25T20:27:47.600Z,100258.06
2022-08-25T20:30:22.063Z,100254.00
2022-08-25T20:32:50.977Z,100257.63
2022-08-25T20:35:26.783Z,100259.63
2022-08-25T20:37:56.762Z,100269.03
2022-08-25T20:40:27.864Z,100264.09
2022-08-25T20:43:01.966Z,100272.50
2022-08-25T20:45:31.882Z,100269.41
2022-08-25T20:48:00.518Z,100267.19
2022-08-25T20:50:29.032Z,100261.44
2022-08-25T20:52:58.736Z,100264.69
2022-08-25T20:55:28.896Z,100266.34
2022-08-25T20:57:58.924Z,100268.63
2022-08-25T21:00:27.463Z,100262.84
2022-08-25T21:02:56.655Z,100259.78
2022-08-25T21:05:25.212Z,100259.53
2022-08-25T21:07:53.689Z,100260.97
2022-08-25T21:10:22.260Z,100258.91
2022-08-25T21:12:53.248Z,100251.44
2022-08-25T21:15:23.564Z,100258.13
2022-08-25T21:17:54.337Z,100256.88
2022-08-25T21:20:24.735Z,100260.00
2022-08-25T21:22:54.435Z,100265.09
2022-08-25T21:25:23.860Z,100263.19
2022-08-25T21:27:52.486Z,100262.06
2022-08-25T21:30:22.415Z,100264.38
2022-08-25T21:32:53.766Z,100261.41
2022-08-25T21:35:23.808Z,100267.25
2022-08-25T21:37:54.776Z,100271.22
2022-08-25T21:40:24.570Z,100266.16
2022-08-25T21:42:53.597Z,100264.72
2022-08-25T21:45:23.366Z,100268.72
2022-08-25T21:47:52.489Z,100261.91
2022-08-25T21:50:21.697Z,100265.19
2022-08-25T21:52:54.298Z,100259.53
2022-08-25T21:55:23.641Z,100265.06
2022-08-25T21:57:52.585Z,100262.66
2022-08-25T22:00:23.471Z,100261.94
2022-08-25T22:02:52.869Z,100267.63
2022-08-25T22:05:21.391Z,100263.38
2022-08-25T22:07:50.445Z,100268.19
2022-08-25T22:10:21.102Z,100260.44
2022-08-25T22:12:51.108Z,100267.94
2022-08-25T22:15:19.885Z,100261.97
2022-08-25T22:17:49.648Z,100260.44
2022-08-25T22:20:19.619Z,100262.56
2022-08-25T22:22:48.626Z,100268.22
2022-08-25T22:25:17.215Z,100266.81
2022-08-25T22:27:45.604Z,100264.69
2022-08-25T22:30:15.538Z,100262.44
2022-08-25T22:32:45.596Z,100259.19
2022-08-25T22:35:15.617Z,100264.16
2022-08-25T22:37:47.597Z,100258.34
2022-08-25T22:40:16.217Z,100256.88
2022-08-25T22:42:48.059Z,100259.16
2022-08-25T22:45:17.150Z,100263.09
2022-08-25T22:47:45.845Z,100256.31
2022-08-25T22:50:17.306Z,100263.66
2022-08-25T22:52:46.876Z,100258.56
2022-08-25T22:55:16.656Z,100257.16
2022-08-25T22:57:45.399Z,100261.97
2022-08-25T23:00:16.820Z,100263.09
2022-08-25T23:02:46.652Z,100258.84
2022-08-25T23:05:17.517Z,100258.28
2022-08-25T23:07:45.941Z,100260.25
2022-08-25T23:10:15.261Z,100252.63
2022-08-25T23:12:44.191Z,100258.41
2022-08-25T23:15:14.153Z,100248.09
2022-08-25T23:17:42.971Z,100249.50
2022-08-25T23:20:26.244Z,100248.06
2022-08-25T23:22:56.212Z,100246.63
2022-08-25T23:25:25.080Z,100247.00
2022-08-25T23:27:53.475Z,100249.97
2022-08-25T23:30:22.108Z,100243.03
2022-08-25T23:32:50.754Z,100242.34
2022-08-25T23:35:19.508Z,100236.25
2022-08-25T23:37:48.490Z,100243.72
2022-08-25T23:40:20.631Z,100245.84
2022-08-25T23:42:50.884Z,100234.66
2022-08-25T23:45:19.433Z,100242.97
2022-08-25T23:47:47.846Z,100249.59
2022-08-25T23:50:18.366Z,100243.91
2022-08-25T23:52:47.737Z,100245.31
2022-08-25T23:55:16.181Z,100247.53
2022-08-25T23:57:51.405Z,100247.81
